Time;durP1;ratioP1;P1;durP2;ratioP2;P2;SDS_P1;SDS_P2;PMS_P1;PMS_P2;Temp;Humidity;BMP_temperature;BMP_pressure;BME280_temperature;BME280_humidity;BME280_pressure;Samples;Min_cycle;Max_cycle;Signal;HPM_P1;HPM_P2
2022/01/25 00:31:10;;;;;;;5.53;3.08;;;20.50;45.70;;;;;;5010425;28;20061;-79
2022/01/25 00:33:36;;;;;;;5.80;3.42;;;20.50;45.80;;;;;;5012912;28;20053;-79
2022/01/25 00:36:02;;;;;;;4.63;2.67;;;20.50;45.80;;;;;;5031566;28;20416;-80
2022/01/25 00:38:28;;;;;;;5.72;3.45;;;20.50;45.80;;;;;;5033636;28;20056;-80
2022/01/25 00:40:53;;;;;;;5.50;3.40;;;20.50;45.80;;;;;;5033723;28;20050;-80
2022/01/25 00:43:21;;;;;;;4.93;2.80;;;20.40;45.80;;;;;;5033109;28;20136;-80
2022/01/25 00:45:48;;;;;;;6.95;3.42;;;20.40;45.80;;;;;;5033855;28;20056;-80
2022/01/25 00:48:19;;;;;;;5.10;3.20;;;20.50;45.90;;;;;;5033945;28;20443;-80
2022/01/25 00:50:45;;;;;;;5.90;3.28;;;20.40;45.80;;;;;;5032813;28;20053;-80
2022/01/25 00:55:55;;;;;;;6.13;3.72;;;20.40;45.90;;;;;;4993081;28;20518;-80
2022/01/25 00:58:20;;;;;;;7.15;3.50;;;20.40;45.90;;;;;;4993682;28;20046;-80
2022/01/25 01:00:46;;;;;;;5.68;3.47;;;20.40;45.90;;;;;;4994183;28;20061;-80
2022/01/25 01:03:11;;;;;;;6.72;3.33;;;20.40;45.90;;;;;;4993434;28;20044;-80
2022/01/25 01:05:38;;;;;;;6.28;3.53;;;20.30;45.90;;;;;;4994147;28;20049;-79
2022/01/25 01:08:04;;;;;;;5.30;3.35;;;20.30;45.90;;;;;;4993898;28;20049;-80
2022/01/25 01:10:30;;;;;;;6.32;2.72;;;21.10;46.30;;;;;;5009561;28;20745;-80
2022/01/25 01:13:24;;;;;;;5.47;3.30;;;20.50;46.00;;;;;;5010058;28;20045;-80
2022/01/25 01:15:54;;;;;;;4.43;3.10;;;20.30;45.90;;;;;;4993251;28;20080;-80
2022/01/25 01:29:58;;;;;;;6.78;3.20;;;20.50;46.10;;;;;;5011260;28;20053;-80
2022/01/25 01:32:56;;;;;;;4.78;3.20;;;20.20;45.90;;;;;;5012868;28;20084;-80
2022/01/25 01:35:36;;;;;;;6.05;3.58;;;20.20;46.00;;;;;;5013077;28;20053;-80
2022/01/25 01:43:30;;;;;;;5.80;3.42;;;20.20;46.00;;;;;;5013025;28;20421;-80
2022/01/25 01:48:30;;;;;;;5.30;3.35;;;20.10;45.90;;;;;;5011119;28;20662;-81
2022/01/25 01:51:02;;;;;;;6.07;3.23;;;20.10;46.00;;;;;;5012810;28;20095;-79
2022/01/25 01:53:27;;;;;;;5.07;3.17;;;20.10;46.00;;;;;;5045345;28;20052;-79
2022/01/25 01:55:53;;;;;;;5.93;3.40;;;20.10;46.00;;;;;;5012739;28;20037;-79
2022/01/25 01:58:18;;;;;;;5.55;3.33;;;20.20;46.00;;;;;;4996288;28;20057;-79
2022/01/25 02:00:45;;;;;;;5.57;3.70;;;20.10;46.00;;;;;;5029689;28;20104;-79
2022/01/25 02:03:11;;;;;;;5.22;3.63;;;20.10;46.00;;;;;;5012558;28;20083;-79
2022/01/25 02:05:37;;;;;;;5.57;3.50;;;20.10;46.00;;;;;;5012557;28;20056;-79
2022/01/25 02:08:02;;;;;;;5.63;3.58;;;20.10;46.00;;;;;;5013936;28;20057;-79
2022/01/25 02:10:28;;;;;;;5.28;3.47;;;20.10;46.10;;;;;;5010186;28;20123;-79
2022/01/25 02:12:54;;;;;;;5.97;3.63;;;20.00;46.00;;;;;;5012792;28;20572;-79
2022/01/25 02:15:22;;;;;;;;;;;20.00;46.10;;;;;;4019617;28;10002030;-79
2022/01/25 02:23:18;;;;;;;5.40;3.63;;;20.00;46.10;;;;;;5048464;28;20571;-79
2022/01/25 02:25:49;;;;;;;6.07;3.58;;;20.00;46.10;;;;;;5032013;28;20103;-79
2022/01/25 02:28:15;;;;;;;5.53;3.38;;;20.00;46.10;;;;;;5016270;28;20093;-79
2022/01/25 02:30:40;;;;;;;5.35;3.53;;;20.00;46.10;;;;;;5011774;28;20113;-79
2022/01/25 02:33:06;;;;;;;5.57;3.63;;;20.00;46.10;;;;;;5028634;28;20245;-79
2022/01/25 02:35:31;;;;;;;5.53;3.58;;;20.00;46.10;;;;;;5011399;28;20061;-79
2022/01/25 02:37:57;;;;;;;5.63;3.25;;;20.00;46.20;;;;;;5010496;28;20049;-79
2022/01/25 02:40:23;;;;;;;5.03;3.38;;;19.90;46.10;;;;;;5011761;28;20095;-79
2022/01/25 02:42:50;;;;;;;5.53;3.67;;;19.90;46.10;;;;;;5011288;28;20045;-79
2022/01/25 02:45:17;;;;;;;5.28;3.38;;;20.10;46.20;;;;;;5014402;28;20080;-79
2022/01/25 02:50:26;;;;;;;4.85;3.10;;;19.90;46.10;;;;;;5010932;28;20421;-80
2022/01/25 02:52:52;;;;;;;5.45;3.28;;;19.90;46.10;;;;;;5011460;28;20068;-79
2022/01/25 02:55:18;;;;;;;5.13;2.90;;;19.90;46.10;;;;;;5011753;28;20526;-79
2022/01/25 02:57:45;;;;;;;4.85;3.40;;;19.90;46.10;;;;;;5018619;28;20091;-79
2022/01/25 03:00:11;;;;;;;5.18;3.45;;;19.90;46.20;;;;;;5031597;28;20092;-79
2022/01/25 03:02:37;;;;;;;5.32;3.53;;;19.90;46.20;;;;;;5019243;28;20057;-79
2022/01/25 03:05:03;;;;;;;5.57;3.80;;;19.80;46.10;;;;;;5010903;28;20503;-79
2022/01/25 03:07:29;;;;;;;4.90;3.58;;;19.90;46.20;;;;;;4995414;28;20231;-79
2022/01/25 03:09:54;;;;;;;6.05;3.40;;;19.80;46.20;;;;;;5010530;28;20140;-79
2022/01/25 03:12:31;;;;;;;5.15;3.58;;;19.80;46.20;;;;;;5011505;28;20050;-79
2022/01/25 03:15:12;;;;;;;5.18;3.28;;;19.80;46.20;;;;;;5011930;28;20049;-79
2022/01/25 03:17:45;;;;;;;6.63;3.10;;;19.80;46.20;;;;;;5010542;28;20092;-79
2022/01/25 03:20:18;;;;;;;6.05;3.63;;;20.50;46.50;;;;;;4979981;28;20053;-79
2022/01/25 03:22:57;;;;;;;5.10;3.35;;;19.80;46.20;;;;;;5028497;28;20053;-79
2022/01/25 03:25:24;;;;;;;5.85;3.50;;;19.80;46.20;;;;;;5030778;28;20037;-79
2022/01/25 03:27:49;;;;;;;4.85;3.30;;;19.80;46.20;;;;;;5047490;28;20068;-79
2022/01/25 03:30:15;;;;;;;5.25;3.10;;;19.80;46.20;;;;;;5030767;28;20291;-79
2022/01/25 03:32:40;;;;;;;5.32;4.05;;;19.80;46.20;;;;;;5013922;28;20041;-79
2022/01/25 03:35:06;;;;;;;4.80;3.60;;;19.80;46.30;;;;;;5030612;28;20045;-79
2022/01/25 03:37:31;;;;;;;3.75;2.60;;;19.80;46.20;;;;;;5030975;28;20056;-79
2022/01/25 03:39:57;;;;;;;5.47;3.70;;;19.70;46.20;;;;;;5029892;28;20053;-79
2022/01/25 03:42:24;;;;;;;5.30;3.95;;;19.70;46.20;;;;;;5030935;28;20135;-79
2022/01/25 03:44:50;;;;;;;6.10;3.95;;;19.80;46.30;;;;;;5030760;28;20045;-79
2022/01/25 03:47:19;;;;;;;5.50;3.67;;;19.70;46.20;;;;;;5030128;28;20044;-79
2022/01/25 03:49:52;;;;;;;5.65;3.35;;;19.70;46.20;;;;;;5030874;28;20075;-79
2022/01/25 03:52:28;;;;;;;5.68;4.03;;;19.70;46.20;;;;;;5047998;28;20049;-79
2022/01/25 03:54:53;;;;;;;6.28;3.90;;;19.70;46.30;;;;;;5030563;28;20399;-79
2022/01/25 03:57:19;;;;;;;5.57;3.38;;;19.70;46.20;;;;;;5047152;28;20128;-79
2022/01/25 03:59:45;;;;;;;5.43;3.40;;;20.40;46.60;;;;;;5030140;28;20056;-79
2022/01/25 04:02:11;;;;;;;6.45;4.05;;;19.70;46.30;;;;;;5048586;28;20099;-79
2022/01/25 04:04:39;;;;;;;5.07;3.45;;;19.70;46.30;;;;;;5030593;28;20057;-79
2022/01/25 04:07:12;;;;;;;5.25;3.55;;;19.70;46.30;;;;;;5029777;28;20063;-79
2022/01/25 04:09:38;;;;;;;4.75;3.50;;;20.10;46.50;;;;;;5032366;28;20049;-79
2022/01/25 04:12:05;;;;;;;5.45;3.58;;;19.60;46.20;;;;;;5034565;28;20074;-79
2022/01/25 04:14:30;;;;;;;5.22;3.58;;;19.60;46.20;;;;;;5033798;28;20053;-79
2022/01/25 04:17:01;;;;;;;4.93;3.33;;;19.60;46.30;;;;;;5033546;28;20126;-79
2022/01/25 04:27:24;;;;;;;5.50;3.47;;;19.60;46.30;;;;;;4967318;28;20049;-79
2022/01/25 04:29:51;;;;;;;5.32;3.53;;;19.60;46.30;;;;;;4973567;28;20098;-79
2022/01/25 04:32:16;;;;;;;5.00;3.55;;;19.60;46.30;;;;;;5001778;28;20136;-79
2022/01/25 04:34:46;;;;;;;5.20;3.65;;;19.60;46.30;;;;;;5033299;28;20131;-79
2022/01/25 04:55:59;;;;;;;5.30;3.47;;;19.60;46.40;;;;;;5029776;28;20641;-79
2022/01/25 04:58:42;;;;;;;4.90;3.40;;;19.60;46.40;;;;;;5013841;28;20061;-79
2022/01/25 05:01:08;;;;;;;5.43;3.25;;;19.60;46.40;;;;;;5013657;28;20053;-79
2022/01/25 05:06:29;;;;;;;5.15;3.28;;;19.50;46.40;;;;;;5000715;28;20057;-79
2022/01/25 05:08:56;;;;;;;4.93;3.30;;;19.50;46.30;;;;;;4987311;28;20054;-79
2022/01/25 05:11:34;;;;;;;4.68;3.05;;;19.50;46.40;;;;;;4993865;28;20364;-79
2022/01/25 05:14:15;;;;;;;4.75;3.15;;;19.50;46.40;;;;;;4979596;28;20169;-79
2022/01/25 05:16:49;;;;;;;4.72;3.15;;;19.50;46.40;;;;;;4813696;28;5089923;-79
2022/01/25 05:24:33;;;;;;;4.35;3.13;;;19.60;46.50;;;;;;4992956;28;20103;-79
2022/01/25 05:26:58;;;;;;;4.03;2.45;;;20.60;47.00;;;;;;4977440;28;20088;-79
2022/01/25 05:29:24;;;;;;;3.72;2.30;;;19.60;46.50;;;;;;4976610;28;20089;-79
2022/01/25 05:31:49;;;;;;;4.25;2.58;;;19.60;46.60;;;;;;4993058;28;20379;-79
2022/01/25 05:34:15;;;;;;;4.22;2.53;;;19.60;46.60;;;;;;5026211;28;20045;-79
2022/01/25 05:36:43;;;;;;;4.75;2.85;;;19.60;46.60;;;;;;5000534;28;20140;-79
2022/01/25 05:39:12;;;;;;;4.90;2.38;;;19.60;46.60;;;;;;5012478;28;20060;-79
2022/01/25 05:41:40;;;;;;;4.60;2.50;;;19.60;46.60;;;;;;5013226;28;20123;-79
2022/01/25 05:44:37;;;;;;;4.30;2.60;;;19.60;46.60;;;;;;5012894;28;20045;-79
2022/01/25 05:47:05;;;;;;;4.25;2.50;;;19.70;46.70;;;;;;5012731;28;20048;-79
2022/01/25 05:49:35;;;;;;;4.00;2.55;;;19.70;46.70;;;;;;5012952;28;20073;-79
2022/01/25 05:52:02;;;;;;;3.70;2.40;;;19.70;46.60;;;;;;5011988;28;20055;-79
2022/01/25 05:54:28;;;;;;;4.85;2.70;;;19.70;46.60;;;;;;5012687;28;20060;-79
2022/01/25 05:56:54;;;;;;;4.25;2.63;;;19.80;46.70;;;;;;5000103;28;20432;-79
2022/01/25 05:59:19;;;;;;;4.15;2.63;;;19.70;46.60;;;;;;5042417;28;20048;-79
2022/01/25 06:01:45;;;;;;;3.60;2.35;;;19.70;46.60;;;;;;5032765;28;20040;-81
2022/01/25 06:04:11;;;;;;;3.92;2.55;;;19.70;46.60;;;;;;5032334;28;20052;-81
2022/01/25 06:06:37;;;;;;;3.75;2.40;;;19.80;46.60;;;;;;5031438;28;20063;-81
2022/01/25 06:09:02;;;;;;;4.38;2.28;;;19.80;46.60;;;;;;5065336;28;20067;-81
2022/01/25 06:11:28;;;;;;;4.63;2.38;;;19.80;46.60;;;;;;5032179;28;20048;-81
2022/01/25 06:13:53;;;;;;;4.32;2.45;;;19.80;46.60;;;;;;5031455;28;20051;-81
2022/01/25 06:16:19;;;;;;;3.20;1.90;;;19.80;46.60;;;;;;5032133;28;20516;-81
2022/01/25 06:18:45;;;;;;;3.53;2.38;;;19.80;46.60;;;;;;5031864;28;20123;-81
2022/01/25 06:21:10;;;;;;;3.13;2.00;;;19.90;46.60;;;;;;5031478;28;20094;-81
2022/01/25 06:23:36;;;;;;;3.30;1.95;;;19.90;46.60;;;;;;5032254;28;20476;-81
2022/01/25 06:26:02;;;;;;;3.88;2.15;;;19.90;46.70;;;;;;5032000;28;20417;-81
2022/01/25 06:28:27;;;;;;;3.50;2.15;;;19.40;46.30;;;;;;5030377;28;20132;-81
2022/01/25 06:30:53;;;;;;;3.70;2.03;;;19.90;46.60;;;;;;5031491;28;20045;-81
2022/01/25 06:33:18;;;;;;;3.38;2.20;;;20.10;46.70;;;;;;5031290;28;20396;-80
2022/01/25 06:35:46;;;;;;;3.55;2.35;;;19.90;46.60;;;;;;5064291;28;20472;-81
2022/01/25 06:38:12;;;;;;;3.80;2.00;;;20.00;46.70;;;;;;5031550;28;20057;-81
2022/01/25 06:40:38;;;;;;;3.63;2.10;;;20.00;46.60;;;;;;5031944;28;20562;-80
2022/01/25 06:43:03;;;;;;;3.20;1.80;;;20.00;46.60;;;;;;5030912;28;20044;-81
2022/01/25 06:45:29;;;;;;;3.90;2.10;;;20.00;46.60;;;;;;5031751;28;20056;-80
2022/01/25 06:47:54;;;;;;;3.30;2.00;;;20.00;46.60;;;;;;5030905;28;20103;-80
2022/01/25 06:50:22;;;;;;;3.78;2.08;;;20.10;46.60;;;;;;5031354;28;20049;-80
2022/01/25 06:52:47;;;;;;;4.30;2.10;;;20.10;46.60;;;;;;5034036;28;20064;-81
2022/01/25 06:55:14;;;;;;;3.13;1.70;;;20.10;46.60;;;;;;5030793;28;20139;-81
2022/01/25 06:57:40;;;;;;;4.50;2.20;;;20.10;46.60;;;;;;5031646;28;20040;-81
2022/01/25 07:00:13;;;;;;;2.88;1.70;;;20.10;46.60;;;;;;5031444;28;20049;-81
2022/01/25 07:02:38;;;;;;;3.00;1.80;;;20.20;46.60;;;;;;5030548;28;20045;-81
2022/01/25 07:05:04;;;;;;;3.78;2.13;;;20.20;46.60;;;;;;5031220;28;20103;-80
2022/01/25 07:07:30;;;;;;;3.15;1.77;;;20.30;46.70;;;;;;5031548;28;20048;-81
2022/01/25 07:09:56;;;;;;;3.80;1.75;;;20.20;46.60;;;;;;5030668;28;20052;-81
2022/01/25 07:12:22;;;;;;;4.43;2.10;;;20.20;46.60;;;;;;5031352;28;20041;-76
2022/01/25 07:14:47;;;;;;;4.15;2.15;;;20.30;46.60;;;;;;5031152;28;20056;-82
2022/01/25 07:17:13;;;;;;;3.33;2.03;;;20.30;46.60;;;;;;5026120;28;20370;-80
2022/01/25 07:19:38;;;;;;;3.03;1.85;;;20.30;46.60;;;;;;4990657;28;20053;-81
2022/01/25 07:22:04;;;;;;;3.90;2.20;;;20.30;46.50;;;;;;4991714;28;20140;-81
2022/01/25 07:24:29;;;;;;;4.32;2.20;;;20.30;46.50;;;;;;4991797;28;20053;-80
2022/01/25 07:26:55;;;;;;;3.75;2.28;;;20.30;46.50;;;;;;5010072;28;20057;-81
2022/01/25 07:29:21;;;;;;;2.80;1.75;;;20.30;46.40;;;;;;5009525;28;21009;-80
2022/01/25 07:31:47;;;;;;;3.90;2.45;;;20.40;46.40;;;;;;4974922;28;20053;-81
2022/01/25 07:34:12;;;;;;;3.90;2.15;;;20.40;46.40;;;;;;4991588;28;20468;-80
2022/01/25 07:36:39;;;;;;;4.63;2.58;;;20.40;46.40;;;;;;4991657;28;20132;-81
2022/01/25 07:39:05;;;;;;;4.22;2.50;;;20.40;46.40;;;;;;4990841;28;20088;-80
2022/01/25 07:41:31;;;;;;;4.15;2.60;;;20.40;46.30;;;;;;4991445;28;20045;-80
2022/01/25 07:43:58;;;;;;;4.20;2.22;;;20.40;46.30;;;;;;5009224;28;20050;-80
2022/01/25 07:46:24;;;;;;;4.25;2.40;;;20.40;46.30;;;;;;4993804;28;20053;-80
2022/01/25 07:48:50;;;;;;;4.38;2.70;;;20.40;46.20;;;;;;4995654;28;20387;-81
2022/01/25 07:51:16;;;;;;;5.03;2.40;;;20.40;46.20;;;;;;4994558;28;20069;-80
2022/01/25 07:53:43;;;;;;;5.45;2.55;;;20.40;46.20;;;;;;4994470;28;21225;-81
2022/01/25 07:56:09;;;;;;;4.20;2.20;;;20.40;46.20;;;;;;4990779;28;20066;-80
2022/01/25 07:58:35;;;;;;;3.78;2.17;;;20.40;46.20;;;;;;4994579;28;20049;-80
2022/01/25 08:01:00;;;;;;;4.25;2.20;;;20.40;46.20;;;;;;4995841;28;20080;-80
2022/01/25 08:03:26;;;;;;;4.75;2.20;;;20.40;46.20;;;;;;4978868;28;20471;-80
2022/01/25 08:05:51;;;;;;;14.52;8.13;;;20.40;46.20;;;;;;4978221;28;20049;-81
2022/01/25 08:08:17;;;;;;;13.00;7.00;;;20.40;45.90;;;;;;4979443;28;20045;-79
2022/01/25 08:10:43;;;;;;;11.70;6.45;;;20.40;45.90;;;;;;5009426;28;20095;-79
2022/01/25 08:13:08;;;;;;;11.57;7.20;;;20.30;45.70;;;;;;4994686;28;20497;-80
2022/01/25 08:15:34;;;;;;;10.45;5.93;;;20.30;45.80;;;;;;4995233;28;20476;-80
2022/01/25 08:17:59;;;;;;;10.45;5.78;;;20.30;45.60;;;;;;4994798;28;20046;-80
2022/01/25 08:20:25;;;;;;;8.82;5.55;;;20.30;45.60;;;;;;4994267;28;20116;-79
2022/01/25 08:22:51;;;;;;;9.45;5.38;;;20.30;45.60;;;;;;4994693;28;20037;-79
2022/01/25 08:25:16;;;;;;;8.70;5.03;;;21.10;46.00;;;;;;4995167;28;20153;-79
2022/01/25 08:27:42;;;;;;;8.40;4.35;;;20.30;45.50;;;;;;4994651;28;20402;-78
2022/01/25 08:30:08;;;;;;;11.15;5.03;;;20.30;45.60;;;;;;4994946;28;20084;-80
2022/01/25 08:32:34;;;;;;;9.65;4.93;;;20.30;45.50;;;;;;4978728;28;20046;-79
2022/01/25 08:34:59;;;;;;;7.57;4.50;;;20.30;45.60;;;;;;4994189;28;20061;-79
2022/01/25 08:37:25;;;;;;;7.45;3.85;;;20.30;45.50;;;;;;4993871;28;20050;-80
2022/01/25 08:39:51;;;;;;;7.97;4.00;;;20.30;45.50;;;;;;4993992;28;20089;-79
2022/01/25 08:42:17;;;;;;;7.82;4.45;;;20.20;45.40;;;;;;4992697;28;20052;-79
2022/01/25 08:44:42;;;;;;;6.90;3.72;;;20.30;45.50;;;;;;4993960;28;20049;-80
2022/01/25 08:47:08;;;;;;;7.88;3.95;;;20.20;45.40;;;;;;4993709;28;20070;-79
2022/01/25 08:49:34;;;;;;;7.82;3.90;;;20.20;45.40;;;;;;5002661;28;20049;-80
2022/01/25 08:52:00;;;;;;;6.32;3.38;;;20.20;45.50;;;;;;5018560;28;20064;-79
2022/01/25 08:54:25;;;;;;;6.00;3.50;;;20.20;45.40;;;;;;5015233;28;20041;-79
2022/01/25 08:56:52;;;;;;;6.72;3.75;;;20.20;45.50;;;;;;5010165;28;20049;-79
2022/01/25 08:59:17;;;;;;;5.75;3.33;;;20.20;45.50;;;;;;5023005;28;20055;-80
2022/01/25 09:01:43;;;;;;;5.93;3.30;;;20.70;45.70;;;;;;4976062;28;20420;-79
2022/01/25 09:04:08;;;;;;;7.20;3.63;;;20.20;45.50;;;;;;5010536;28;20096;-79
2022/01/25 09:06:34;;;;;;;5.82;3.20;;;20.20;45.50;;;;;;5010688;28;20137;-79
2022/01/25 09:09:07;;;;;;;5.78;3.38;;;20.20;45.50;;;;;;5009988;28;20046;-79
2022/01/25 09:11:34;;;;;;;6.32;3.28;;;20.20;45.50;;;;;;5010578;28;20136;-80
2022/01/25 09:13:59;;;;;;;5.78;3.42;;;20.20;45.50;;;;;;5010554;28;20379;-79
2022/01/25 09:16:25;;;;;;;6.07;3.53;;;20.20;45.50;;;;;;5009880;28;20081;-79
2022/01/25 09:18:50;;;;;;;5.70;3.03;;;20.20;45.50;;;;;;5010119;28;20076;-79
2022/01/25 09:21:16;;;;;;;5.75;3.10;;;20.20;45.60;;;;;;5010337;28;20136;-79
2022/01/25 09:23:42;;;;;;;6.18;3.50;;;20.10;45.50;;;;;;5011070;28;20500;-80
2022/01/25 09:26:07;;;;;;;4.82;3.08;;;20.10;45.50;;;;;;5010267;28;20157;-79
2022/01/25 09:28:33;;;;;;;5.18;3.05;;;20.10;45.50;;;;;;5010113;28;20046;-80
2022/01/25 09:30:59;;;;;;;6.13;3.45;;;20.10;45.50;;;;;;5001562;28;20030;-80
2022/01/25 09:33:25;;;;;;;4.97;3.00;;;20.20;45.60;;;;;;4991047;28;20068;-80
2022/01/25 09:35:51;;;;;;;4.53;2.90;;;20.10;45.60;;;;;;4990059;28;20049;-80
2022/01/25 09:38:16;;;;;;;5.95;3.15;;;20.20;45.60;;;;;;4988842;28;20057;-79
2022/01/25 09:40:42;;;;;;;6.80;3.70;;;20.10;45.50;;;;;;4989581;28;20029;-80
2022/01/25 09:43:34;;;;;;;5.72;2.90;;;20.10;45.50;;;;;;4989997;28;20045;-83
2022/01/25 09:46:00;;;;;;;6.75;2.85;;;20.30;45.70;;;;;;4993814;28;20064;-81
2022/01/25 09:48:25;;;;;;;5.07;2.70;;;20.10;45.80;;;;;;5006270;28;20045;-80
2022/01/25 09:50:51;;;;;;;5.38;2.95;;;21.20;46.50;;;;;;5044135;28;20054;-80
2022/01/25 09:53:17;;;;;;;6.97;3.17;;;20.20;45.90;;;;;;5002521;28;20042;-80
2022/01/25 09:55:43;;;;;;;5.45;2.45;;;20.20;45.90;;;;;;5026854;28;20096;-80
2022/01/25 09:58:10;;;;;;;4.95;2.58;;;20.20;46.00;;;;;;5007443;28;20128;-81
2022/01/25 10:00:44;;;;;;;4.93;2.67;;;20.20;46.60;;;;;;5011820;28;20045;-82
2022/01/25 10:03:20;;;;;;;4.47;2.28;;;20.30;46.10;;;;;;5004185;28;20045;-80
2022/01/25 10:05:47;;;;;;;4.93;2.20;;;20.30;46.00;;;;;;5011734;28;20485;-83
2022/01/25 10:08:39;;;;;;;4.07;2.08;;;20.30;46.10;;;;;;5011203;28;20125;-81
2022/01/25 10:11:07;;;;;;;5.05;2.50;;;21.70;46.80;;;;;;4990482;28;20064;-81
2022/01/25 10:13:34;;;;;;;3.90;2.20;;;20.30;46.00;;;;;;4991624;28;20133;-76
2022/01/25 10:16:04;;;;;;;4.68;2.40;;;20.30;46.10;;;;;;5002079;28;20095;-81
2022/01/25 10:18:51;;;;;;;4.85;2.72;;;20.40;46.20;;;;;;5010971;28;20512;-80
2022/01/25 10:21:48;;;;;;;4.38;2.35;;;21.30;46.60;;;;;;5013908;28;20081;-80
2022/01/25 10:24:24;;;;;;;3.40;1.77;;;21.10;46.60;;;;;;5008575;28;20053;-81
2022/01/25 10:27:03;;;;;;;3.80;2.10;;;20.80;46.30;;;;;;5013698;28;20041;-80
2022/01/25 10:29:35;;;;;;;3.35;2.08;;;20.50;46.20;;;;;;5031463;28;20040;-80
2022/01/25 10:32:05;;;;;;;5.45;2.85;;;20.50;46.20;;;;;;5048340;28;20134;-79
2022/01/25 10:34:43;;;;;;;5.65;3.40;;;20.60;46.20;;;;;;5031094;28;20044;-79
2022/01/25 10:37:10;;;;;;;8.57;2.90;;;20.50;46.10;;;;;;5030978;28;20407;-79
2022/01/25 10:39:40;;;;;;;5.50;2.85;;;20.60;46.00;;;;;;5041061;28;20046;-80
2022/01/25 10:42:10;;;;;;;4.75;2.90;;;20.60;46.00;;;;;;5010807;28;20501;-79
2022/01/25 10:44:59;;;;;;;5.78;3.53;;;20.60;46.00;;;;;;5011996;28;20124;-81
2022/01/25 10:47:46;;;;;;;5.10;2.97;;;20.60;45.90;;;;;;5013302;28;20670;-78
2022/01/25 10:50:34;;;;;;;5.43;3.22;;;20.60;45.90;;;;;;5012133;28;20040;-85
2022/01/25 10:53:09;;;;;;;7.90;2.88;;;20.60;45.90;;;;;;5009193;28;20527;-82
2022/01/25 10:55:53;;;;;;;6.03;2.92;;;20.70;46.00;;;;;;5009301;28;20134;-82
2022/01/25 10:58:19;;;;;;;5.70;2.50;;;20.70;45.90;;;;;;5010562;28;20141;-80
2022/01/25 11:00:46;;;;;;;5.50;3.17;;;20.70;46.70;;;;;;5016568;28;20127;-82
2022/01/25 11:03:12;;;;;;;5.35;3.15;;;20.70;45.90;;;;;;5010212;28;20049;-80
2022/01/25 11:05:41;;;;;;;5.28;3.17;;;20.70;45.90;;;;;;4994424;28;20060;-83
2022/01/25 11:08:15;;;;;;;5.03;2.80;;;20.70;45.90;;;;;;5010839;28;20056;-80
2022/01/25 11:10:48;;;;;;;4.40;2.70;;;20.70;45.90;;;;;;5028053;28;20056;-81
2022/01/25 11:13:33;;;;;;;5.07;2.70;;;20.80;45.90;;;;;;5011994;28;20060;-82
2022/01/25 11:16:02;;;;;;;4.13;2.45;;;20.80;45.90;;;;;;5011647;28;20073;-82
2022/01/25 11:18:30;;;;;;;6.95;2.80;;;20.80;45.90;;;;;;5044088;28;20396;-82
2022/01/25 11:20:56;;;;;;;4.30;2.20;;;20.80;45.90;;;;;;5010472;28;20136;-82
2022/01/25 11:23:22;;;;;;;4.05;2.53;;;20.80;45.80;;;;;;5043760;28;20076;-82
2022/01/25 11:25:48;;;;;;;4.90;2.65;;;20.80;45.80;;;;;;5028738;28;20151;-82
2022/01/25 11:28:14;;;;;;;4.80;2.60;;;20.80;45.80;;;;;;5011404;28;20107;-82
2022/01/25 11:30:40;;;;;;;3.53;2.33;;;21.50;46.10;;;;;;5010534;28;20053;-81
2022/01/25 11:33:09;;;;;;;4.07;2.28;;;20.80;45.70;;;;;;5010998;28;20042;-81
2022/01/25 11:35:35;;;;;;;4.03;2.35;;;20.90;45.70;;;;;;5027262;28;20056;-82
2022/01/25 11:38:00;;;;;;;5.10;2.90;;;20.90;45.70;;;;;;5026573;28;20061;-82
2022/01/25 11:40:35;;;;;;;4.43;2.58;;;20.80;45.70;;;;;;5011177;28;20080;-82
2022/01/25 11:43:02;;;;;;;4.97;2.85;;;20.80;45.70;;;;;;5011194;28;20049;-82
2022/01/25 11:45:30;;;;;;;4.40;2.15;;;20.90;45.70;;;;;;5027178;28;20057;-82
2022/01/25 11:47:56;;;;;;;4.40;2.67;;;20.90;45.70;;;;;;5011458;28;20056;-82
2022/01/25 11:50:30;;;;;;;5.68;2.40;;;20.80;45.70;;;;;;5043356;28;20037;-82
2022/01/25 11:52:57;;;;;;;4.97;2.45;;;20.90;45.70;;;;;;5011260;28;20511;-82
2022/01/25 11:55:30;;;;;;;5.03;2.50;;;20.80;45.70;;;;;;5010905;28;20050;-82
2022/01/25 11:58:07;;;;;;;4.13;2.25;;;20.80;45.70;;;;;;5009234;28;20424;-82
2022/01/25 12:00:55;;;;;;;3.85;2.05;;;20.80;45.70;;;;;;5011148;28;20423;-82
2022/01/25 12:03:32;;;;;;;4.70;2.47;;;20.80;45.70;;;;;;5012795;28;20045;-82
2022/01/25 12:06:20;;;;;;;4.30;2.30;;;20.80;45.70;;;;;;5027148;28;20053;-82
2022/01/25 12:11:45;;;;;;;3.95;2.40;;;20.80;45.70;;;;;;5043216;28;20521;-80
2022/01/25 12:14:37;;;;;;;4.45;2.20;;;20.80;45.70;;;;;;5009145;28;20045;-82
2022/01/25 12:17:02;;;;;;;4.53;2.28;;;20.80;45.70;;;;;;5010710;28;20662;-81
2022/01/25 12:19:35;;;;;;;4.50;2.30;;;20.80;45.80;;;;;;5009469;28;20048;-81
2022/01/25 12:22:27;;;;;;;3.50;2.03;;;20.80;45.70;;;;;;5012403;28;20049;-81
2022/01/25 12:27:35;;;;;;;3.85;1.90;;;20.80;45.80;;;;;;4997744;28;20064;-81
2022/01/25 12:30:12;;;;;;;4.07;2.25;;;20.80;45.80;;;;;;5009649;28;20095;-81
2022/01/25 12:32:51;;;;;;;3.67;1.95;;;20.80;45.80;;;;;;5013030;28;20488;-82
2022/01/25 12:35:30;;;;;;;5.22;2.30;;;20.80;45.70;;;;;;5012544;28;20053;-81
2022/01/25 12:37:57;;;;;;;3.83;2.00;;;20.80;45.80;;;;;;5011484;28;20111;-84
2022/01/25 12:40:26;;;;;;;4.68;2.33;;;20.80;45.80;;;;;;5013151;28;20076;-82
2022/01/25 12:42:52;;;;;;;7.55;2.67;;;20.80;45.80;;;;;;5013415;28;20052;-81
2022/01/25 12:45:21;;;;;;;5.90;2.83;;;20.80;45.90;;;;;;5012738;28;20041;-81
2022/01/25 12:47:54;;;;;;;21.58;9.52;;;20.80;45.90;;;;;;5012845;28;20128;-81
2022/01/25 12:50:20;;;;;;;81.68;29.60;;;20.80;45.90;;;;;;5009849;28;20445;-81
2022/01/25 12:52:46;;;;;;;94.32;34.45;;;20.80;46.60;;;;;;4997293;28;20073;-81
2022/01/25 12:55:12;;;;;;;161.05;55.33;;;20.80;45.90;;;;;;5013319;28;20041;-81
2022/01/25 12:57:44;;;;;;;183.68;61.03;;;20.80;45.80;;;;;;5013222;28;20156;-80
2022/01/25 13:00:13;;;;;;;182.60;59.22;;;20.80;45.90;;;;;;4998376;28;20099;-82
2022/01/25 13:02:39;;;;;;;167.75;56.05;;;20.80;46.60;;;;;;5015128;28;20136;-81
2022/01/25 13:05:18;;;;;;;138.85;47.78;;;20.80;45.70;;;;;;4998314;28;20131;-82
2022/01/25 13:07:44;;;;;;;130.00;45.63;;;20.80;45.40;;;;;;5013053;28;20424;-82
2022/01/25 13:10:11;;;;;;;115.07;42.60;;;21.20;45.60;;;;;;5012981;28;20049;-82
2022/01/25 13:12:54;;;;;;;116.35;40.95;;;20.80;45.60;;;;;;5013565;28;20046;-82
2022/01/25 13:15:51;;;;;;;108.78;39.70;;;20.80;45.70;;;;;;5012635;28;20053;-82
2022/01/25 13:18:17;;;;;;;110.88;38.83;;;20.80;45.70;;;;;;5013123;28;20045;-82
2022/01/25 13:20:45;;;;;;;97.78;36.25;;;20.80;45.70;;;;;;5009421;28;20048;-82
2022/01/25 13:23:12;;;;;;;97.00;34.83;;;20.80;45.80;;;;;;5011957;28;20138;-82
2022/01/25 13:28:52;;;;;;;100.85;34.88;;;20.80;45.70;;;;;;5026858;28;20148;-81
2022/01/25 13:31:19;;;;;;;79.40;33.13;;;20.80;45.70;;;;;;5012869;28;20094;-82
2022/01/25 13:33:45;;;;;;;87.28;33.28;;;20.80;45.80;;;;;;5014898;28;20437;-82
2022/01/25 13:36:16;;;;;;;84.10;32.22;;;20.80;45.70;;;;;;5012507;28;20119;-82
2022/01/25 13:38:42;;;;;;;79.10;30.02;;;20.80;45.70;;;;;;5012243;28;20120;-82
2022/01/25 13:41:20;;;;;;;75.00;29.95;;;20.80;45.70;;;;;;5010408;28;20136;-82
2022/01/25 13:46:26;;;;;;;80.40;29.73;;;20.80;45.70;;;;;;5043044;28;20594;-82
2022/01/25 13:48:54;;;;;;;66.40;27.08;;;20.80;45.60;;;;;;5014975;28;20064;-82
2022/01/25 13:51:21;;;;;;;67.88;28.02;;;20.80;45.70;;;;;;5043666;28;20057;-82
2022/01/25 13:53:52;;;;;;;59.58;24.90;;;20.80;45.70;;;;;;5010532;28;20053;-82
2022/01/25 13:56:18;;;;;;;80.60;27.83;;;20.80;45.70;;;;;;5012811;28;20467;-82
2022/01/25 13:58:47;;;;;;;65.47;26.63;;;20.80;45.70;;;;;;4995013;28;20045;-82
2022/01/25 14:01:13;;;;;;;66.78;26.52;;;20.80;46.50;;;;;;5012919;28;20612;-82
2022/01/25 14:04:04;;;;;;;61.13;25.83;;;20.80;45.80;;;;;;5012338;28;20123;-82
2022/01/25 14:06:41;;;;;;;63.28;25.50;;;20.80;45.70;;;;;;4996607;28;20419;-92
2022/01/25 14:09:15;;;;;;;60.28;24.05;;;20.80;45.70;;;;;;5002050;28;20098;-82
2022/01/25 14:25:01;;;;;;;47.63;20.33;;;20.80;45.90;;;;;;5026096;28;20053;-82
2022/01/25 14:27:31;;;;;;;49.20;21.13;;;20.80;45.90;;;;;;5003756;28;20108;-82
2022/01/25 14:29:56;;;;;;;45.72;19.85;;;20.80;45.90;;;;;;5009892;28;20060;-83
2022/01/25 14:32:35;;;;;;;41.42;18.17;;;20.80;45.90;;;;;;5043482;28;20443;-82
2022/01/25 14:35:09;;;;;;;44.63;18.35;;;20.80;45.90;;;;;;5009835;28;20535;-82
2022/01/25 14:37:35;;;;;;;40.92;18.65;;;20.80;46.00;;;;;;5029089;28;20498;-82
2022/01/25 14:40:09;;;;;;;37.75;16.98;;;21.50;46.30;;;;;;5030953;28;20084;-82
2022/01/25 14:42:37;;;;;;;41.28;16.15;;;20.90;45.90;;;;;;5031081;28;20136;-81
2022/01/25 14:45:05;;;;;;;38.83;16.75;;;20.90;45.90;;;;;;5014687;28;20037;-81
2022/01/25 14:47:35;;;;;;;37.85;15.68;;;20.90;45.90;;;;;;5021829;28;20049;-81
2022/01/25 14:50:01;;;;;;;41.30;16.60;;;20.90;45.90;;;;;;5008987;28;20146;-81
2022/01/25 14:52:26;;;;;;;31.17;15.40;;;20.90;45.80;;;;;;5011167;28;20744;-82